Time;durP1;ratioP1;P1;durP2;ratioP2;P2;SDS_P1;SDS_P2;PMS_P1;PMS_P2;Temp;Humidity;BMP_temperature;BMP_pressure;BME280_temperature;BME280_humidity;BME280_pressure;Samples;Min_cycle;Max_cycle;Signal;HPM_P1;HPM_P2
2022/12/16 00:01:45;;;;;;;7.45;5.38;;;;;;;17.22;59.99;97860.84;5054959;28;20055;-75
2022/12/16 00:04:10;;;;;;;7.68;5.15;;;;;;;17.20;60.15;97868.03;5054663;28;20079;-75
2022/12/16 00:06:36;;;;;;;7.53;4.97;;;;;;;17.20;60.23;97862.75;5054792;28;20033;-75
2022/12/16 00:09:01;;;;;;;7.00;4.95;;;;;;;17.18;60.04;97855.81;5054833;28;20025;-76
2022/12/16 00:11:27;;;;;;;6.80;4.85;;;;;;;17.20;60.09;97868.03;5054627;28;20021;-76
2022/12/16 00:13:53;;;;;;;8.43;5.53;;;;;;;17.20;60.15;97862.75;5054614;28;20021;-77
2022/12/16 00:16:20;;;;;;;6.47;4.95;;;;;;;17.16;60.14;97862.94;5054148;28;20106;-75
2022/12/16 00:18:46;;;;;;;7.93;5.20;;;;;;;17.16;60.15;97857.69;5053182;28;20033;-75
2022/12/16 00:21:12;;;;;;;7.80;5.10;;;;;;;17.16;59.97;97852.41;5053536;28;20013;-76
2022/12/16 00:23:40;;;;;;;7.22;4.60;;;;;;;17.18;60.33;97866.34;5053392;28;20041;-76
2022/12/16 00:26:06;;;;;;;8.00;4.60;;;;;;;17.16;59.96;97862.94;5054352;28;20413;-75
2022/12/16 00:28:32;;;;;;;8.00;4.68;;;;;;;17.17;59.85;97864.66;5054365;28;20021;-76
2022/12/16 00:30:57;;;;;;;6.93;4.68;;;;;;;17.18;60.01;97868.97;5053690;28;20021;-76
2022/12/16 00:33:26;;;;;;;8.15;4.40;;;;;;;17.17;60.25;97864.66;5053031;28;20424;-76
2022/12/16 00:35:52;;;;;;;6.97;4.93;;;;;;;17.20;59.80;97868.03;5053126;28;20036;-76
2022/12/16 00:38:18;;;;;;;6.93;4.93;;;;;;;17.21;59.83;97859.16;5054010;28;20028;-75
2022/12/16 00:40:43;;;;;;;6.22;4.25;;;;;;;17.17;60.02;97864.66;5053847;28;20021;-75
2022/12/16 00:43:09;;;;;;;7.35;4.65;;;;;;;17.18;59.83;97861.06;5053835;28;20389;-76
2022/12/16 00:45:35;;;;;;;6.30;4.15;;;;;;;17.16;60.08;97862.94;5053717;28;20378;-76
2022/12/16 00:48:00;;;;;;;7.75;4.25;;;;;;;17.14;60.15;97864.03;5053279;28;20021;-75
2022/12/16 00:50:26;;;;;;;6.68;4.65;;;;;;;17.16;60.29;97864.75;5053871;28;20021;-76
2022/12/16 00:52:52;;;;;;;6.72;4.50;;;;;;;17.16;60.40;97868.22;5053660;28;20021;-75
2022/12/16 00:55:18;;;;;;;6.95;4.25;;;;;;;17.16;60.05;97864.75;5053820;28;20443;-76
2022/12/16 00:57:43;;;;;;;8.10;4.32;;;;;;;17.17;60.05;97869.94;5053499;28;20064;-76
2022/12/16 01:00:11;;;;;;;6.75;4.80;;;;;;;17.15;60.33;97877.09;5053460;28;20143;-76
2022/12/16 01:02:39;;;;;;;6.60;4.13;;;;;;;17.19;59.87;97875.06;5052937;28;20040;-76
2022/12/16 01:05:06;;;;;;;7.40;4.97;;;;;;;17.15;60.23;97876.25;5053264;28;20025;-76
2022/12/16 01:07:31;;;;;;;8.07;4.50;;;;;;;17.14;60.20;97880.69;5053189;28;20056;-76
2022/12/16 01:09:56;;;;;;;6.05;4.38;;;;;;;17.16;60.05;97873.50;5053129;28;20100;-76
2022/12/16 01:12:22;;;;;;;7.22;4.55;;;;;;;17.15;60.22;97877.09;5052970;28;20393;-76
2022/12/16 01:14:48;;;;;;;6.78;4.78;;;;;;;17.16;59.99;97884.03;5053459;28;20009;-76
2022/12/16 01:17:14;;;;;;;6.72;4.82;;;;;;;17.15;60.03;97887.63;5052884;28;20497;-75
2022/12/16 01:19:39;;;;;;;6.88;4.30;;;;;;;17.16;60.29;97886.69;5053159;28;20112;-76
2022/12/16 01:22:05;;;;;;;7.38;4.18;;;;;;;17.18;60.25;97897.13;5052884;28;20673;-76
2022/12/16 01:24:30;;;;;;;5.85;4.22;;;;;;;17.18;60.06;97892.69;5051751;28;20068;-75
2022/12/16 01:26:56;;;;;;;6.47;4.30;;;;;;;17.16;60.04;97899.84;5051790;28;20117;-76
2022/12/16 01:29:21;;;;;;;6.07;4.43;;;;;;;17.16;59.89;97899.84;5051506;28;20021;-75
2022/12/16 01:31:46;;;;;;;5.93;3.83;;;;;;;17.16;60.40;97905.13;5051489;28;20021;-75
2022/12/16 01:34:12;;;;;;;5.97;3.95;;;;;;;17.16;60.21;97906.94;5051370;28;20020;-75
2022/12/16 01:36:37;;;;;;;5.72;3.85;;;;;;;17.16;60.36;97913.03;5051172;28;20407;-76
2022/12/16 01:39:03;;;;;;;6.15;4.30;;;;;;;17.16;60.25;97931.47;5051891;28;20024;-75
2022/12/16 01:41:28;;;;;;;6.15;4.28;;;;;;;17.15;60.06;97921.91;5051761;28;20021;-76
2022/12/16 01:44:18;;;;;;;6.22;4.13;;;;;;;17.16;60.17;97925.38;5052772;28;20025;-75
2022/12/16 01:46:54;;;;;;;7.30;4.05;;;;;;;17.16;60.29;97923.56;5051838;28;20033;-75
2022/12/16 01:49:29;;;;;;;6.28;4.40;;;;;;;17.14;60.34;97933.41;5052658;28;20091;-75
2022/12/16 01:51:59;;;;;;;5.40;3.90;;;;;;;17.15;60.24;97935.06;5052408;28;20029;-76
2022/12/16 01:54:30;;;;;;;6.07;3.88;;;;;;;17.16;60.01;97938.56;5052723;28;20025;-76
2022/12/16 01:57:11;;;;;;;5.88;3.95;;;;;;;17.15;60.00;97937.72;5052492;28;20029;-75
2022/12/16 01:59:40;;;;;;;6.57;4.53;;;;;;;17.16;60.32;97943.84;5052553;28;20048;-75
2022/12/16 02:02:06;;;;;;;5.40;3.60;;;;;;;17.16;60.39;97936.75;5052128;28;20031;-76
2022/12/16 02:04:31;;;;;;;6.28;4.20;;;;;;;17.15;60.20;97945.63;5052540;28;20111;-76
2022/12/16 02:06:59;;;;;;;6.05;3.78;;;;;;;17.15;60.14;97948.25;5052275;28;20032;-75
2022/12/16 02:09:24;;;;;;;6.07;4.07;;;;;;;17.16;60.14;97951.75;5052410;28;20056;-76
2022/12/16 02:12:16;;;;;;;5.35;4.07;;;;;;;17.14;60.22;97954.47;5052365;28;20496;-76
2022/12/16 02:14:50;;;;;;;7.03;4.10;;;;;;;17.15;60.18;97956.16;5051972;28;20036;-76
2022/12/16 02:17:43;;;;;;;7.03;4.28;;;;;;;17.15;60.05;97958.78;5051973;28;20516;-76
2022/12/16 02:20:14;;;;;;;5.25;3.55;;;;;;;17.13;60.46;97963.34;5032412;28;20034;-76
2022/12/16 02:23:04;;;;;;;5.80;3.83;;;;;;;17.13;60.41;97968.63;5031186;28;20029;-76
2022/12/16 02:25:38;;;;;;;4.60;3.28;;;;;;;17.12;60.32;97972.19;5031913;28;20125;-76
2022/12/16 02:28:10;;;;;;;5.97;3.83;;;;;;;17.12;60.24;97974.84;5033543;28;20040;-75
2022/12/16 02:30:50;;;;;;;5.80;3.78;;;;;;;17.15;60.10;97977.25;5050021;28;20025;-76
2022/12/16 02:33:29;;;;;;;5.88;4.18;;;;;;;17.14;60.05;97978.19;5049735;28;20449;-76
2022/12/16 02:36:18;;;;;;;6.40;4.28;;;;;;;17.15;60.26;97981.69;5049494;28;20404;-75
2022/12/16 02:38:55;;;;;;;5.20;3.70;;;;;;;17.13;60.44;97984.44;5049462;28;20017;-75
2022/12/16 02:41:20;;;;;;;;;;;;;;;17.15;60.27;97985.16;5051548;28;20021;-76
2022/12/16 02:44:03;;;;;;;6.30;4.10;;;;;;;17.14;60.12;97986.09;5050899;28;20342;-76
2022/12/16 02:46:32;;;;;;;5.28;3.70;;;;;;;17.11;60.34;97988.13;5049830;28;20516;-76
2022/12/16 02:49:25;;;;;;;6.30;3.78;;;;;;;17.12;60.40;97987.16;5051681;28;20017;-75
2022/12/16 02:51:51;;;;;;;6.28;4.03;;;;;;;17.13;60.37;97994.97;5051531;28;20388;-76
2022/12/16 02:54:17;;;;;;;5.32;3.67;;;;;;;17.13;59.93;97987.06;5052946;28;20036;-76
2022/12/16 02:56:57;;;;;;;5.38;3.65;;;;;;;17.14;60.43;97994.00;5055467;28;20029;-75
2022/12/16 02:59:28;;;;;;;5.72;3.72;;;;;;;17.12;60.49;97995.91;5055617;28;20029;-76
2022/12/16 03:02:04;;;;;;;5.47;3.78;;;;;;;17.13;60.41;97999.38;5055528;28;20029;-75
2022/12/16 03:04:53;;;;;;;5.22;3.42;;;;;;;17.12;60.37;97998.56;5055963;28;20033;-76
2022/12/16 03:07:23;;;;;;;5.05;3.50;;;;;;;17.12;60.52;97997.69;5056117;28;20104;-75
2022/12/16 03:09:51;;;;;;;5.65;4.00;;;;;;;17.11;60.50;98004.78;5055817;28;20028;-75
2022/12/16 03:12:19;;;;;;;5.47;3.53;;;;;;;17.12;60.21;98001.19;5055234;28;20032;-75
2022/12/16 03:14:49;;;;;;;7.18;3.50;;;;;;;17.14;60.40;97999.28;5055967;28;20040;-76
2022/12/16 03:17:17;;;;;;;4.78;3.17;;;;;;;17.13;60.43;98002.88;5055228;28;20048;-75
2022/12/16 03:19:47;;;;;;;5.70;3.83;;;;;;;17.10;60.48;98000.44;5055801;28;20547;-75
2022/12/16 03:22:19;;;;;;;6.32;3.33;;;;;;;17.11;60.41;98002.16;5055553;28;20028;-76
2022/12/16 03:24:45;;;;;;;6.03;3.45;;;;;;;17.13;60.47;98000.25;5055253;28;20029;-75
2022/12/16 03:27:53;;;;;;;5.07;3.38;;;;;;;17.14;60.06;98007.19;5055334;28;20036;-76
2022/12/16 03:30:33;;;;;;;5.20;3.33;;;;;;;17.11;60.39;98004.78;5032659;28;20064;-75
2022/12/16 03:33:17;;;;;;;6.28;4.38;;;;;;;17.11;60.34;97996.88;5035462;28;20047;-75
2022/12/16 03:35:49;;;;;;;4.63;3.30;;;;;;;17.11;60.31;98007.41;5034709;28;20032;-75
2022/12/16 03:38:15;;;;;;;5.40;3.42;;;;;;;17.11;60.36;98007.41;5036667;28;20032;-76
2022/12/16 03:40:43;;;;;;;5.53;3.05;;;;;;;17.13;60.17;98009.94;5053957;28;20032;-75
2022/12/16 03:43:13;;;;;;;5.50;3.80;;;;;;;17.12;60.01;98001.19;5053403;28;20686;-76
2022/12/16 03:45:40;;;;;;;6.13;3.47;;;;;;;17.12;60.27;98009.09;5053546;28;20040;-75
2022/12/16 03:48:08;;;;;;;6.15;3.67;;;;;;;17.13;60.22;98015.19;5053262;28;20117;-75
2022/12/16 03:50:35;;;;;;;6.03;4.00;;;;;;;17.10;60.55;98010.97;5053477;28;20036;-75
2022/12/16 03:53:01;;;;;;;5.30;3.60;;;;;;;17.13;60.17;98002.88;5053693;28;20385;-75
2022/12/16 03:55:27;;;;;;;5.18;3.38;;;;;;;17.11;60.30;98012.69;5053664;28;20036;-76
2022/12/16 03:57:52;;;;;;;5.28;3.58;;;;;;;17.12;60.10;98003.84;5053488;28;20035;-76
2022/12/16 04:00:18;;;;;;;5.80;3.65;;;;;;;17.11;60.45;98011.84;5054157;28;20029;-75
2022/12/16 04:02:44;;;;;;;5.45;3.40;;;;;;;17.11;60.16;98007.41;5054201;28;20071;-75
2022/12/16 04:05:09;;;;;;;5.30;3.50;;;;;;;17.13;60.18;98013.41;5053572;28;20028;-76
2022/12/16 04:07:35;;;;;;;6.50;4.00;;;;;;;17.10;60.38;98013.63;5054299;28;20400;-75
2022/12/16 04:10:00;;;;;;;6.05;4.10;;;;;;;17.10;60.20;98008.34;5054173;28;20032;-76
2022/12/16 04:26:15;;;;;;;6.43;3.90;;;;;;;17.09;60.05;98011.94;5034273;28;20397;-75
2022/12/16 04:28:40;;;;;;;5.20;3.53;;;;;;;17.11;60.04;98011.84;5072092;28;20032;-75
2022/12/16 04:31:06;;;;;;;6.10;3.88;;;;;;;17.10;60.30;98018.06;5051706;28;20025;-75
